Terminal Aerodrome Forecast
Issued by NWS

Home | Current Version | Previous Version | Text Only | Print | Product List | Glossary On
Versions: 1 2 3 4 5 6 7 8 9 10 11 12 13
000
FTUS45 KRIW 131100
TAFBPI
TAF
KBPI 131123Z 1312/1412 VRB04KT P6SM SKC
     FM132000 31008KT P6SM SCT120
     FM140300 VRB05KT P6SM SKC=

USA.gov is the U.S. government's official web portal to all federal, state and local government web resources and services.